sensor_id;sensor_type;location;lat;lon;timestamp;pressure;altitude;pressure_sealevel;temperature;humidity
61359;BME280;47228;46.762;23.598;2024-02-23T00:01:24;96504.86;;;6.77;59.31
61359;BME280;47228;46.762;23.598;2024-02-23T00:03:53;96505.52;;;6.76;59.38
61359;BME280;47228;46.762;23.598;2024-02-23T00:06:23;96506.89;;;6.75;59.26
61359;BME280;47228;46.762;23.598;2024-02-23T00:08:56;96505.46;;;6.74;59.27
61359;BME280;47228;46.762;23.598;2024-02-23T00:11:24;96501.89;;;6.73;59.11
61359;BME280;47228;46.762;23.598;2024-02-23T00:13:52;96502.02;;;6.72;59.23
61359;BME280;47228;46.762;23.598;2024-02-23T00:16:20;96499.77;;;6.71;59.40
61359;BME280;47228;46.762;23.598;2024-02-23T00:18:48;96503.67;;;6.70;59.51
61359;BME280;47228;46.762;23.598;2024-02-23T00:21:16;96506.59;;;6.69;59.82
61359;BME280;47228;46.762;23.598;2024-02-23T00:23:44;96508.27;;;6.68;59.83
61359;BME280;47228;46.762;23.598;2024-02-23T00:26:12;96504.15;;;6.68;59.97
61359;BME280;47228;46.762;23.598;2024-02-23T00:28:40;96505.33;;;6.68;60.36
61359;BME280;47228;46.762;23.598;2024-02-23T00:31:08;96506.52;;;6.69;60.56
61359;BME280;47228;46.762;23.598;2024-02-23T00:33:37;96505.73;;;6.68;60.33
61359;BME280;47228;46.762;23.598;2024-02-23T00:36:05;96504.93;;;6.67;60.33
61359;BME280;47228;46.762;23.598;2024-02-23T00:38:33;96500.38;;;6.67;60.28
61359;BME280;47228;46.762;23.598;2024-02-23T00:41:02;96500.55;;;6.66;60.33
61359;BME280;47228;46.762;23.598;2024-02-23T00:43:38;96495.74;;;6.65;60.39
61359;BME280;47228;46.762;23.598;2024-02-23T00:46:07;96493.59;;;6.64;60.42
61359;BME280;47228;46.762;23.598;2024-02-23T00:48:35;96491.23;;;6.61;60.37
61359;BME280;47228;46.762;23.598;2024-02-23T00:51:03;96495.36;;;6.61;60.63
61359;BME280;47228;46.762;23.598;2024-02-23T00:53:31;96497.39;;;6.60;60.82
61359;BME280;47228;46.762;23.598;2024-02-23T00:56:00;96493.81;;;6.59;60.72
61359;BME280;47228;46.762;23.598;2024-02-23T00:58:28;96494.46;;;6.59;60.49
61359;BME280;47228;46.762;23.598;2024-02-23T01:00:56;96488.54;;;6.59;60.49
61359;BME280;47228;46.762;23.598;2024-02-23T01:03:24;96488.52;;;6.59;60.83
61359;BME280;47228;46.762;23.598;2024-02-23T01:05:53;96487.94;;;6.60;61.03
61359;BME280;47228;46.762;23.598;2024-02-23T01:08:21;96485.29;;;6.60;60.84
61359;BME280;47228;46.762;23.598;2024-02-23T01:10:49;96487.11;;;6.59;60.46
61359;BME280;47228;46.762;23.598;2024-02-23T01:13:17;96486.64;;;6.58;60.47
61359;BME280;47228;46.762;23.598;2024-02-23T01:15:45;96485.77;;;6.58;60.73
61359;BME280;47228;46.762;23.598;2024-02-23T01:18:13;96483.66;;;6.58;60.66
61359;BME280;47228;46.762;23.598;2024-02-23T01:20:42;96478.63;;;6.58;60.68
61359;BME280;47228;46.762;23.598;2024-02-23T01:23:10;96478.19;;;6.57;60.57
61359;BME280;47228;46.762;23.598;2024-02-23T01:25:38;96478.55;;;6.56;60.69
61359;BME280;47228;46.762;23.598;2024-02-23T01:28:07;96473.63;;;6.54;60.71
61359;BME280;47228;46.762;23.598;2024-02-23T01:30:35;96475.42;;;6.53;60.69
61359;BME280;47228;46.762;23.598;2024-02-23T01:33:03;96474.79;;;6.54;61.00
61359;BME280;47228;46.762;23.598;2024-02-23T01:35:31;96472.77;;;6.54;61.34
61359;BME280;47228;46.762;23.598;2024-02-23T01:38:00;96473.91;;;6.55;61.09
61359;BME280;47228;46.762;23.598;2024-02-23T01:40:28;96471.84;;;6.53;61.11
61359;BME280;47228;46.762;23.598;2024-02-23T01:43:01;96469.05;;;6.52;61.32
61359;BME280;47228;46.762;23.598;2024-02-23T01:45:30;96469.05;;;6.51;61.30
61359;BME280;47228;46.762;23.598;2024-02-23T01:48:00;96468.59;;;6.49;61.21
61359;BME280;47228;46.762;23.598;2024-02-23T01:50:29;96466.80;;;6.47;61.40
61359;BME280;47228;46.762;23.598;2024-02-23T01:53:01;96464.20;;;6.47;61.46
61359;BME280;47228;46.762;23.598;2024-02-23T01:55:31;96456.52;;;6.47;61.58
61359;BME280;47228;46.762;23.598;2024-02-23T01:58:04;96455.75;;;6.46;61.82
61359;BME280;47228;46.762;23.598;2024-02-23T02:00:36;96449.80;;;6.44;61.99
61359;BME280;47228;46.762;23.598;2024-02-23T02:03:04;96454.73;;;6.43;61.87
61359;BME280;47228;46.762;23.598;2024-02-23T02:05:37;96454.84;;;6.42;61.63
61359;BME280;47228;46.762;23.598;2024-02-23T02:08:06;96452.51;;;6.44;61.22
61359;BME280;47228;46.762;23.598;2024-02-23T02:10:36;96454.67;;;6.47;61.11
61359;BME280;47228;46.762;23.598;2024-02-23T02:13:05;96454.89;;;6.51;61.00
61359;BME280;47228;46.762;23.598;2024-02-23T02:15:33;96454.04;;;6.56;60.84
61359;BME280;47228;46.762;23.598;2024-02-23T02:18:02;96452.78;;;6.61;60.82
61359;BME280;47228;46.762;23.598;2024-02-23T02:20:32;96449.94;;;6.63;60.93
61359;BME280;47228;46.762;23.598;2024-02-23T02:23:01;96446.45;;;6.63;60.96
61359;BME280;47228;46.762;23.598;2024-02-23T02:25:29;96447.75;;;6.63;61.08
61359;BME280;47228;46.762;23.598;2024-02-23T02:27:57;96446.30;;;6.62;61.28
61359;BME280;47228;46.762;23.598;2024-02-23T02:30:25;96449.70;;;6.62;61.34
61359;BME280;47228;46.762;23.598;2024-02-23T02:32:53;96450.70;;;6.61;61.84
61359;BME280;47228;46.762;23.598;2024-02-23T02:35:22;96448.07;;;6.59;61.92
61359;BME280;47228;46.762;23.598;2024-02-23T02:37:50;96445.88;;;6.57;61.84
61359;BME280;47228;46.762;23.598;2024-02-23T02:40:18;96448.99;;;6.56;61.97
61359;BME280;47228;46.762;23.598;2024-02-23T02:42:46;96448.27;;;6.55;61.99
61359;BME280;47228;46.762;23.598;2024-02-23T02:45:14;96448.22;;;6.54;62.21
61359;BME280;47228;46.762;23.598;2024-02-23T02:47:47;96445.21;;;6.51;62.34
61359;BME280;47228;46.762;23.598;2024-02-23T02:50:15;96444.36;;;6.50;62.57
61359;BME280;47228;46.762;23.598;2024-02-23T02:52:44;96444.45;;;6.49;62.69
61359;BME280;47228;46.762;23.598;2024-02-23T02:55:12;96448.67;;;6.49;62.62
61359;BME280;47228;46.762;23.598;2024-02-23T02:57:40;96451.46;;;6.49;62.92
61359;BME280;47228;46.762;23.598;2024-02-23T03:00:10;96450.65;;;6.50;63.24
61359;BME280;47228;46.762;23.598;2024-02-23T03:02:38;96451.27;;;6.51;63.22
61359;BME280;47228;46.762;23.598;2024-02-23T03:05:07;96446.27;;;6.51;63.29
61359;BME280;47228;46.762;23.598;2024-02-23T03:07:35;96443.27;;;6.51;63.36
61359;BME280;47228;46.762;23.598;2024-02-23T03:10:04;96442.39;;;6.51;63.20
61359;BME280;47228;46.762;23.598;2024-02-23T03:12:32;96444.73;;;6.51;62.95
61359;BME280;47228;46.762;23.598;2024-02-23T03:15:00;96445.17;;;6.50;62.94
61359;BME280;47228;46.762;23.598;2024-02-23T03:17:30;96443.23;;;6.50;62.89
61359;BME280;47228;46.762;23.598;2024-02-23T03:19:59;96443.77;;;6.50;63.02
61359;BME280;47228;46.762;23.598;2024-02-23T03:22:27;96448.30;;;6.49;63.07
61359;BME280;47228;46.762;23.598;2024-02-23T03:24:55;96449.68;;;6.49;62.92
61359;BME280;47228;46.762;23.598;2024-02-23T03:27:27;96451.34;;;6.49;62.99
61359;BME280;47228;46.762;23.598;2024-02-23T03:29:56;96453.48;;;6.49;63.08
61359;BME280;47228;46.762;23.598;2024-02-23T03:32:24;96451.71;;;6.47;63.10
61359;BME280;47228;46.762;23.598;2024-02-23T03:34:53;96449.36;;;6.46;62.99
61359;BME280;47228;46.762;23.598;2024-02-23T03:37:21;96449.34;;;6.45;63.22
61359;BME280;47228;46.762;23.598;2024-02-23T03:39:49;96449.83;;;6.44;63.36
61359;BME280;47228;46.762;23.598;2024-02-23T03:42:17;96451.04;;;6.43;63.24
61359;BME280;47228;46.762;23.598;2024-02-23T03:44:45;96447.98;;;6.40;63.19
61359;BME280;47228;46.762;23.598;2024-02-23T03:47:13;96446.00;;;6.40;63.25
61359;BME280;47228;46.762;23.598;2024-02-23T03:49:41;96447.54;;;6.40;63.12
61359;BME280;47228;46.762;23.598;2024-02-23T03:52:09;96448.08;;;6.41;63.03
61359;BME280;47228;46.762;23.598;2024-02-23T03:54:37;96442.52;;;6.42;63.09
61359;BME280;47228;46.762;23.598;2024-02-23T03:57:05;96443.77;;;6.43;63.19
61359;BME280;47228;46.762;23.598;2024-02-23T03:59:36;96441.67;;;6.44;63.19
61359;BME280;47228;46.762;23.598;2024-02-23T04:02:05;96442.33;;;6.46;63.05
61359;BME280;47228;46.762;23.598;2024-02-23T04:04:33;96441.07;;;6.49;62.72
61359;BME280;47228;46.762;23.598;2024-02-23T04:07:02;96440.05;;;6.53;62.53
61359;BME280;47228;46.762;23.598;2024-02-23T04:09:30;96440.19;;;6.56;62.72
61359;BME280;47228;46.762;23.598;2024-02-23T04:11:58;96440.55;;;6.58;62.71
61359;BME280;47228;46.762;23.598;2024-02-23T04:14:27;96441.83;;;6.60;62.86
61359;BME280;47228;46.762;23.598;2024-02-23T04:16:55;96439.67;;;6.60;62.69
61359;BME280;47228;46.762;23.598;2024-02-23T04:19:24;96437.16;;;6.60;62.43
61359;BME280;47228;46.762;23.598;2024-02-23T04:21:52;96436.96;;;6.61;62.46
61359;BME280;47228;46.762;23.598;2024-02-23T04:24:20;96438.94;;;6.61;62.29
61359;BME280;47228;46.762;23.598;2024-02-23T04:26:52;96438.23;;;6.62;62.09
61359;BME280;47228;46.762;23.598;2024-02-23T04:29:20;96433.27;;;6.64;62.08
61359;BME280;47228;46.762;23.598;2024-02-23T04:31:48;96434.32;;;6.66;61.71
61359;BME280;47228;46.762;23.598;2024-02-23T04:34:16;96434.98;;;6.71;61.18
61359;BME280;47228;46.762;23.598;2024-02-23T04:36:44;96437.06;;;6.76;60.85
61359;BME280;47228;46.762;23.598;2024-02-23T04:39:13;96438.45;;;6.83;60.61
61359;BME280;47228;46.762;23.598;2024-02-23T04:41:41;96438.13;;;6.90;60.30
61359;BME280;47228;46.762;23.598;2024-02-23T04:44:09;96437.19;;;6.96;60.16
61359;BME280;47228;46.762;23.598;2024-02-23T04:46:38;96438.61;;;7.04;59.88
61359;BME280;47228;46.762;23.598;2024-02-23T04:49:06;96439.83;;;7.12;59.44
61359;BME280;47228;46.762;23.598;2024-02-23T04:51:34;96438.97;;;7.20;59.09
61359;BME280;47228;46.762;23.598;2024-02-23T04:54:02;96441.52;;;7.27;58.83
61359;BME280;47228;46.762;23.598;2024-02-23T04:56:31;96443.11;;;7.32;58.93
61359;BME280;47228;46.762;23.598;2024-02-23T04:58:59;96447.25;;;7.37;58.67
61359;BME280;47228;46.762;23.598;2024-02-23T05:01:27;96450.54;;;7.42;58.16
61359;BME280;47228;46.762;23.598;2024-02-23T05:03:55;96449.96;;;7.46;58.25
61359;BME280;47228;46.762;23.598;2024-02-23T05:06:24;96454.31;;;7.49;58.27
61359;BME280;47228;46.762;23.598;2024-02-23T05:08:51;96455.92;;;7.52;58.60
61359;BME280;47228;46.762;23.598;2024-02-23T05:11:20;96454.25;;;7.52;58.75
61359;BME280;47228;46.762;23.598;2024-02-23T05:13:48;96458.48;;;7.52;58.88
61359;BME280;47228;46.762;23.598;2024-02-23T05:16:20;96457.56;;;7.50;58.84
61359;BME280;47228;46.762;23.598;2024-02-23T05:18:48;96457.60;;;7.48;58.96
61359;BME280;47228;46.762;23.598;2024-02-23T05:21:16;96459.39;;;7.47;58.76
61359;BME280;47228;46.762;23.598;2024-02-23T05:23:45;96461.34;;;7.45;59.10
61359;BME280;47228;46.762;23.598;2024-02-23T05:26:14;96463.83;;;7.43;59.11
61359;BME280;47228;46.762;23.598;2024-02-23T05:28:42;96463.70;;;7.38;59.17
61359;BME280;47228;46.762;23.598;2024-02-23T05:31:10;96469.62;;;7.33;59.03
61359;BME280;47228;46.762;23.598;2024-02-23T05:33:39;96470.88;;;7.32;58.69
61359;BME280;47228;46.762;23.598;2024-02-23T05:36:07;96473.31;;;7.33;58.52
61359;BME280;47228;46.762;23.598;2024-02-23T05:38:36;96474.16;;;7.36;58.19
61359;BME280;47228;46.762;23.598;2024-02-23T05:41:04;96473.14;;;7.40;57.86
61359;BME280;47228;46.762;23.598;2024-02-23T05:43:33;96476.67;;;7.44;57.88
61359;BME280;47228;46.762;23.598;2024-02-23T05:46:03;96481.70;;;7.48;57.77
61359;BME280;47228;46.762;23.598;2024-02-23T05:48:32;96483.66;;;7.54;57.55
61359;BME280;47228;46.762;23.598;2024-02-23T05:51:01;96489.80;;;7.58;57.66
61359;BME280;47228;46.762;23.598;2024-02-23T05:53:28;96493.36;;;7.61;57.65
61359;BME280;47228;46.762;23.598;2024-02-23T05:56:00;96492.30;;;7.65;57.72
61359;BME280;47228;46.762;23.598;2024-02-23T05:58:29;96497.54;;;7.68;57.43
61359;BME280;47228;46.762;23.598;2024-02-23T06:00:57;96494.56;;;7.71;57.21
61359;BME280;47228;46.762;23.598;2024-02-23T06:03:25;96494.76;;;7.75;57.19
61359;BME280;47228;46.762;23.598;2024-02-23T06:05:53;96495.85;;;7.79;57.01
61359;BME280;47228;46.762;23.598;2024-02-23T06:08:22;96497.20;;;7.82;56.98
61359;BME280;47228;46.762;23.598;2024-02-23T06:10:50;96498.02;;;7.85;57.05
61359;BME280;47228;46.762;23.598;2024-02-23T06:13:19;96500.63;;;7.88;56.76
61359;BME280;47228;46.762;23.598;2024-02-23T06:15:47;96506.92;;;7.91;56.59
61359;BME280;47228;46.762;23.598;2024-02-23T06:18:15;96513.10;;;7.95;56.35
61359;BME280;47228;46.762;23.598;2024-02-23T06:20:43;96511.59;;;7.98;56.19
61359;BME280;47228;46.762;23.598;2024-02-23T06:23:11;96513.70;;;8.02;56.24
61359;BME280;47228;46.762;23.598;2024-02-23T06:25:39;96511.04;;;8.07;56.41
61359;BME280;47228;46.762;23.598;2024-02-23T06:28:09;96511.64;;;8.10;56.57
61359;BME280;47228;46.762;23.598;2024-02-23T06:30:38;96503.83;;;8.12;57.24
61359;BME280;47228;46.762;23.598;2024-02-23T06:33:06;96502.54;;;8.15;57.44
61359;BME280;47228;46.762;23.598;2024-02-23T06:35:35;96500.69;;;8.15;57.80
61359;BME280;47228;46.762;23.598;2024-02-23T06:38:03;96500.59;;;8.16;58.06
61359;BME280;47228;46.762;23.598;2024-02-23T06:40:33;96504.90;;;8.15;58.28
61359;BME280;47228;46.762;23.598;2024-02-23T06:43:18;96496.56;;;8.16;58.09
61359;BME280;47228;46.762;23.598;2024-02-23T06:45:50;96498.84;;;8.17;58.15
61359;BME280;47228;46.762;23.598;2024-02-23T06:48:19;96499.45;;;8.20;57.87
61359;BME280;47228;46.762;23.598;2024-02-23T06:50:47;96500.94;;;8.23;57.93
61359;BME280;47228;46.762;23.598;2024-02-23T06:53:15;96503.85;;;8.26;57.43
61359;BME280;47228;46.762;23.598;2024-02-23T06:55:43;96509.42;;;8.31;57.33
61359;BME280;47228;46.762;23.598;2024-02-23T06:58:12;96512.70;;;8.35;57.26
61359;BME280;47228;46.762;23.598;2024-02-23T07:00:42;96515.00;;;8.37;57.59
61359;BME280;47228;46.762;23.598;2024-02-23T07:03:11;96518.38;;;8.38;58.28
61359;BME280;47228;46.762;23.598;2024-02-23T07:05:39;96514.80;;;8.39;59.08
61359;BME280;47228;46.762;23.598;2024-02-23T07:08:07;96511.83;;;8.39;59.28
61359;BME280;47228;46.762;23.598;2024-02-23T07:10:36;96513.37;;;8.39;59.64
61359;BME280;47228;46.762;23.598;2024-02-23T07:13:04;96510.02;;;8.39;60.04
61359;BME280;47228;46.762;23.598;2024-02-23T07:15:34;96511.95;;;8.39;60.06
61359;BME280;47228;46.762;23.598;2024-02-23T07:18:04;96513.17;;;8.38;60.16
61359;BME280;47228;46.762;23.598;2024-02-23T07:20:32;96515.25;;;8.38;60.68
61359;BME280;47228;46.762;23.598;2024-02-23T07:23:01;96515.28;;;8.39;60.38
61359;BME280;47228;46.762;23.598;2024-02-23T07:25:29;96516.45;;;8.44;60.42
61359;BME280;47228;46.762;23.598;2024-02-23T07:27:58;96516.44;;;8.51;60.22
61359;BME280;47228;46.762;23.598;2024-02-23T07:30:26;96516.98;;;8.60;59.32
61359;BME280;47228;46.762;23.598;2024-02-23T07:32:54;96514.23;;;8.70;58.08
61359;BME280;47228;46.762;23.598;2024-02-23T07:35:23;96515.35;;;8.80;57.08
61359;BME280;47228;46.762;23.598;2024-02-23T07:37:55;96518.61;;;8.88;56.37
61359;BME280;47228;46.762;23.598;2024-02-23T07:40:23;96517.02;;;8.96;55.67
61359;BME280;47228;46.762;23.598;2024-02-23T07:42:51;96517.37;;;9.03;55.27
61359;BME280;47228;46.762;23.598;2024-02-23T07:45:20;96514.52;;;9.09;55.17
61359;BME280;47228;46.762;23.598;2024-02-23T07:47:48;96521.19;;;9.13;54.64
61359;BME280;47228;46.762;23.598;2024-02-23T07:50:16;96519.25;;;9.17;54.43
61359;BME280;47228;46.762;23.598;2024-02-23T07:52:47;96520.90;;;9.20;53.90
61359;BME280;47228;46.762;23.598;2024-02-23T07:55:15;96520.66;;;9.23;53.29
61359;BME280;47228;46.762;23.598;2024-02-23T07:57:47;96523.02;;;9.26;53.25
61359;BME280;47228;46.762;23.598;2024-02-23T08:00:15;96520.92;;;9.28;52.89
61359;BME280;47228;46.762;23.598;2024-02-23T08:02:44;96520.92;;;9.29;52.68
61359;BME280;47228;46.762;23.598;2024-02-23T08:05:12;96521.39;;;9.31;52.56
61359;BME280;47228;46.762;23.598;2024-02-23T08:07:40;96527.16;;;9.33;52.50
61359;BME280;47228;46.762;23.598;2024-02-23T08:10:09;96530.30;;;9.34;52.43
61359;BME280;47228;46.762;23.598;2024-02-23T08:12:39;96532.67;;;9.36;52.50
61359;BME280;47228;46.762;23.598;2024-02-23T08:15:10;96536.34;;;9.38;52.56
61359;BME280;47228;46.762;23.598;2024-02-23T08:17:39;96538.94;;;9.38;52.63
61359;BME280;47228;46.762;23.598;2024-02-23T08:20:08;96540.30;;;9.37;52.76
61359;BME280;47228;46.762;23.598;2024-02-23T08:22:39;96541.80;;;9.36;52.63
61359;BME280;47228;46.762;23.598;2024-02-23T08:25:08;96538.85;;;9.35;52.85
61359;BME280;47228;46.762;23.598;2024-02-23T08:27:42;96542.67;;;9.35;53.21
61359;BME280;47228;46.762;23.598;2024-02-23T08:30:13;96543.13;;;9.36;53.38
61359;BME280;47228;46.762;23.598;2024-02-23T08:32:41;96544.29;;;9.38;53.78
61359;BME280;47228;46.762;23.598;2024-02-23T08:35:10;96544.98;;;9.39;53.73
61359;BME280;47228;46.762;23.598;2024-02-23T08:37:38;96547.45;;;9.40;53.92
61359;BME280;47228;46.762;23.598;2024-02-23T08:40:07;96547.01;;;9.41;53.67
61359;BME280;47228;46.762;23.598;2024-02-23T08:42:36;96547.12;;;9.43;53.80
61359;BME280;47228;46.762;23.598;2024-02-23T08:45:04;96547.95;;;9.44;53.92
61359;BME280;47228;46.762;23.598;2024-02-23T08:47:33;96547.58;;;9.46;53.94
61359;BME280;47228;46.762;23.598;2024-02-23T08:50:04;96545.81;;;9.47;53.81
61359;BME280;47228;46.762;23.598;2024-02-23T08:52:33;96546.66;;;9.49;53.96
61359;BME280;47228;46.762;23.598;2024-02-23T08:55:01;96545.17;;;9.51;54.12
61359;BME280;47228;46.762;23.598;2024-02-23T08:57:29;96543.77;;;9.52;54.58
61359;BME280;47228;46.762;23.598;2024-02-23T08:59:57;96544.77;;;9.53;54.65
61359;BME280;47228;46.762;23.598;2024-02-23T09:02:26;96543.30;;;9.55;54.87
61359;BME280;47228;46.762;23.598;2024-02-23T09:04:54;96542.42;;;9.56;54.73
61359;BME280;47228;46.762;23.598;2024-02-23T09:07:23;96539.29;;;9.57;54.73
61359;BME280;47228;46.762;23.598;2024-02-23T09:09:52;96543.44;;;9.59;54.51
61359;BME280;47228;46.762;23.598;2024-02-23T09:12:20;96543.52;;;9.62;54.12
61359;BME280;47228;46.762;23.598;2024-02-23T09:14:48;96544.63;;;9.66;54.09
61359;BME280;47228;46.762;23.598;2024-02-23T09:17:17;96545.66;;;9.70;53.96
61359;BME280;47228;46.762;23.598;2024-02-23T09:19:47;96546.00;;;9.74;53.69
61359;BME280;47228;46.762;23.598;2024-02-23T09:22:15;96553.39;;;9.77;53.65
61359;BME280;47228;46.762;23.598;2024-02-23T09:24:43;96557.45;;;9.79;53.56
61359;BME280;47228;46.762;23.598;2024-02-23T09:27:11;96555.67;;;9.81;53.33
61359;BME280;47228;46.762;23.598;2024-02-23T09:29:41;96555.89;;;9.85;53.15
61359;BME280;47228;46.762;23.598;2024-02-23T09:32:09;96558.80;;;9.88;52.92
61359;BME280;47228;46.762;23.598;2024-02-23T09:34:38;96560.12;;;9.92;52.93
61359;BME280;47228;46.762;23.598;2024-02-23T09:37:06;96561.48;;;9.94;52.81
61359;BME280;47228;46.762;23.598;2024-02-23T09:39:34;96557.82;;;9.97;53.19
61359;BME280;47228;46.762;23.598;2024-02-23T09:42:02;96554.44;;;10.01;53.31
61359;BME280;47228;46.762;23.598;2024-02-23T09:44:32;96550.65;;;10.05;53.07
61359;BME280;47228;46.762;23.598;2024-02-23T09:47:05;96544.94;;;10.09;52.87
61359;BME280;47228;46.762;23.598;2024-02-23T09:49:39;96548.25;;;10.12;53.03
61359;BME280;47228;46.762;23.598;2024-02-23T09:52:10;96549.53;;;10.14;53.11
61359;BME280;47228;46.762;23.598;2024-02-23T09:54:39;96547.98;;;10.14;53.21
61359;BME280;47228;46.762;23.598;2024-02-23T09:57:08;96552.73;;;10.13;53.36
61359;BME280;47228;46.762;23.598;2024-02-23T09:59:37;96549.74;;;10.10;53.57
61359;BME280;47228;46.762;23.598;2024-02-23T10:02:10;96553.31;;;10.07;53.79
61359;BME280;47228;46.762;23.598;2024-02-23T10:04:43;96554.20;;;10.06;54.07
61359;BME280;47228;46.762;23.598;2024-02-23T10:07:15;96554.77;;;10.06;54.11
61359;BME280;47228;46.762;23.598;2024-02-23T10:09:44;96554.36;;;10.06;54.06
61359;BME280;47228;46.762;23.598;2024-02-23T10:12:13;96558.30;;;10.07;54.08
61359;BME280;47228;46.762;23.598;2024-02-23T10:14:41;96557.61;;;10.09;54.24
61359;BME280;47228;46.762;23.598;2024-02-23T10:17:10;96556.40;;;10.12;54.25
61359;BME280;47228;46.762;23.598;2024-02-23T10:19:38;96556.27;;;10.14;54.28
61359;BME280;47228;46.762;23.598;2024-02-23T10:22:06;96559.05;;;10.17;54.62
61359;BME280;47228;46.762;23.598;2024-02-23T10:24:36;96555.17;;;10.20;54.50
61359;BME280;47228;46.762;23.598;2024-02-23T10:27:05;96549.64;;;10.24;54.45
61359;BME280;47228;46.762;23.598;2024-02-23T10:29:33;96551.92;;;10.27;54.40
61359;BME280;47228;46.762;23.598;2024-02-23T10:32:01;96548.18;;;10.30;53.49
61359;BME280;47228;46.762;23.598;2024-02-23T10:34:31;96551.32;;;10.34;52.78
61359;BME280;47228;46.762;23.598;2024-02-23T10:37:01;96549.66;;;10.40;52.18
61359;BME280;47228;46.762;23.598;2024-02-23T10:39:32;96546.56;;;10.45;51.99
61359;BME280;47228;46.762;23.598;2024-02-23T10:42:08;96545.39;;;10.52;52.06
61359;BME280;47228;46.762;23.598;2024-02-23T10:44:37;96539.77;;;10.59;51.63
61359;BME280;47228;46.762;23.598;2024-02-23T10:47:06;96535.42;;;10.65;51.44
61359;BME280;47228;46.762;23.598;2024-02-23T10:49:36;96536.62;;;10.70;50.88
61359;BME280;47228;46.762;23.598;2024-02-23T10:52:06;96535.02;;;10.74;50.87
61359;BME280;47228;46.762;23.598;2024-02-23T10:54:36;96533.50;;;10.79;50.59
61359;BME280;47228;46.762;23.598;2024-02-23T10:57:04;96532.67;;;10.84;50.48
61359;BME280;47228;46.762;23.598;2024-02-23T10:59:32;96527.02;;;10.91;50.35
61359;BME280;47228;46.762;23.598;2024-02-23T11:02:02;96523.36;;;11.00;50.07
61359;BME280;47228;46.762;23.598;2024-02-23T11:04:33;96519.98;;;11.10;49.77
61359;BME280;47228;46.762;23.598;2024-02-23T11:07:02;96518.73;;;11.19;49.57
61359;BME280;47228;46.762;23.598;2024-02-23T11:09:35;96518.02;;;11.27;49.64
61359;BME280;47228;46.762;23.598;2024-02-23T11:12:04;96514.08;;;11.33;49.43
61359;BME280;47228;46.762;23.598;2024-02-23T11:14:37;96518.17;;;11.38;49.33
61359;BME280;47228;46.762;23.598;2024-02-23T11:17:06;96517.95;;;11.42;49.35
61359;BME280;47228;46.762;23.598;2024-02-23T11:19:35;96516.80;;;11.44;49.19
61359;BME280;47228;46.762;23.598;2024-02-23T11:22:05;96517.67;;;11.46;49.18
61359;BME280;47228;46.762;23.598;2024-02-23T11:24:50;96522.30;;;11.46;48.79
61359;BME280;47228;46.762;23.598;2024-02-23T11:27:24;96521.66;;;11.45;49.11
61359;BME280;47228;46.762;23.598;2024-02-23T11:29:59;96522.41;;;11.46;49.46
61359;BME280;47228;46.762;23.598;2024-02-23T11:32:58;96522.38;;;11.46;49.19
61359;BME280;47228;46.762;23.598;2024-02-23T11:35:30;96525.08;;;11.46;48.82
61359;BME280;47228;46.762;23.598;2024-02-23T11:37:59;96527.83;;;11.46;48.59
61359;BME280;47228;46.762;23.598;2024-02-23T11:40:33;96531.34;;;11.46;48.53
61359;BME280;47228;46.762;23.598;2024-02-23T11:43:02;96535.69;;;11.45;48.29
61359;BME280;47228;46.762;23.598;2024-02-23T11:45:30;96533.63;;;11.46;48.31
61359;BME280;47228;46.762;23.598;2024-02-23T11:47:59;96531.11;;;11.47;48.30
61359;BME280;47228;46.762;23.598;2024-02-23T11:50:28;96529.30;;;11.50;48.24
61359;BME280;47228;46.762;23.598;2024-02-23T11:52:57;96529.27;;;11.53;48.03
61359;BME280;47228;46.762;23.598;2024-02-23T11:55:25;96524.14;;;11.54;48.21
61359;BME280;47228;46.762;23.598;2024-02-23T11:57:54;96523.13;;;11.56;48.28
61359;BME280;47228;46.762;23.598;2024-02-23T12:00:35;96524.32;;;11.57;48.03
61359;BME280;47228;46.762;23.598;2024-02-23T12:03:03;96518.26;;;11.58;47.78
61359;BME280;47228;46.762;23.598;2024-02-23T12:05:33;96522.22;;;11.58;47.67
61359;BME280;47228;46.762;23.598;2024-02-23T12:08:02;96524.05;;;11.60;47.97
61359;BME280;47228;46.762;23.598;2024-02-23T12:10:31;96525.34;;;11.62;47.58
61359;BME280;47228;46.762;23.598;2024-02-23T12:12:59;96528.05;;;11.67;47.81
61359;BME280;47228;46.762;23.598;2024-02-23T12:15:27;96529.64;;;11.72;47.50
61359;BME280;47228;46.762;23.598;2024-02-23T12:17:58;96530.24;;;11.76;47.32
61359;BME280;47228;46.762;23.598;2024-02-23T12:20:33;96526.97;;;11.80;47.07
61359;BME280;47228;46.762;23.598;2024-02-23T12:23:01;96525.81;;;11.83;46.83
61359;BME280;47228;46.762;23.598;2024-02-23T12:25:30;96530.46;;;11.84;46.99
61359;BME280;47228;46.762;23.598;2024-02-23T12:27:58;96528.26;;;11.83;46.73
61359;BME280;47228;46.762;23.598;2024-02-23T12:30:27;96525.23;;;11.84;46.94
61359;BME280;47228;46.762;23.598;2024-02-23T12:33:06;96521.38;;;11.85;46.93
61359;BME280;47228;46.762;23.598;2024-02-23T12:35:35;96521.23;;;11.85;46.82
61359;BME280;47228;46.762;23.598;2024-02-23T12:38:04;96520.86;;;11.88;47.02
61359;BME280;47228;46.762;23.598;2024-02-23T12:40:32;96520.93;;;11.91;47.26
61359;BME280;47228;46.762;23.598;2024-02-23T12:43:02;96522.54;;;11.94;46.90
61359;BME280;47228;46.762;23.598;2024-02-23T12:45:30;96517.31;;;11.96;47.10
61359;BME280;47228;46.762;23.598;2024-02-23T12:47:59;96519.38;;;11.98;47.01
61359;BME280;47228;46.762;23.598;2024-02-23T12:50:30;96522.24;;;12.00;47.13
61359;BME280;47228;46.762;23.598;2024-02-23T12:52:59;96517.50;;;12.02;46.93
61359;BME280;47228;46.762;23.598;2024-02-23T12:55:29;96514.22;;;12.05;46.95
61359;BME280;47228;46.762;23.598;2024-02-23T12:57:57;96510.20;;;12.07;46.71
61359;BME280;47228;46.762;23.598;2024-02-23T13:00:25;96503.31;;;12.09;46.78
61359;BME280;47228;46.762;23.598;2024-02-23T13:02:53;96499.02;;;12.11;46.59
61359;BME280;47228;46.762;23.598;2024-02-23T13:05:22;96500.86;;;12.11;46.53
61359;BME280;47228;46.762;23.598;2024-02-23T13:07:50;96505.66;;;12.13;46.57